createdAt,value
2018-02-16T00:02:25.229Z,4.01
2018-02-16T00:04:52.642Z,4.07
2018-02-16T00:07:20.089Z,4.11
2018-02-16T00:09:47.525Z,4.15
2018-02-16T00:12:14.945Z,4.16
2018-02-16T00:14:42.392Z,4.18
2018-02-16T00:17:09.825Z,4.19
2018-02-16T00:19:37.269Z,4.21
2018-02-16T00:22:04.706Z,4.20
2018-02-16T00:24:32.128Z,4.16
2018-02-16T00:26:59.581Z,4.09
2018-02-16T00:29:27.067Z,4.14
2018-02-16T00:31:54.479Z,4.12
2018-02-16T00:34:21.919Z,4.19
2018-02-16T00:36:49.343Z,4.10
2018-02-16T00:39:16.792Z,4.01
2018-02-16T00:41:44.224Z,4.05
2018-02-16T00:44:11.674Z,4.10
2018-02-16T00:46:39.131Z,4.18
2018-02-16T00:49:06.557Z,4.17
2018-02-16T00:51:33.980Z,4.21
2018-02-16T00:54:01.440Z,4.20
2018-02-16T00:56:28.884Z,4.07
2018-02-16T00:58:56.308Z,4.09
2018-02-16T01:01:23.748Z,3.94
2018-02-16T01:03:51.186Z,3.92
2018-02-16T01:06:18.616Z,4.00
2018-02-16T01:08:46.029Z,3.96
2018-02-16T01:11:13.457Z,3.96
2018-02-16T01:13:40.880Z,3.83
2018-02-16T01:16:08.303Z,3.68
2018-02-16T01:18:35.765Z,3.63
2018-02-16T01:21:03.172Z,3.51
2018-02-16T01:23:30.618Z,3.40
2018-02-16T01:25:58.074Z,3.29
2018-02-16T01:28:25.547Z,3.31
2018-02-16T01:30:52.961Z,3.23
2018-02-16T01:33:20.418Z,3.12
2018-02-16T01:35:47.877Z,3.16
2018-02-16T01:38:15.301Z,3.17
2018-02-16T01:40:43.496Z,3.22
2018-02-16T01:43:10.953Z,3.18
2018-02-16T01:45:38.384Z,3.17
2018-02-16T01:48:05.813Z,3.19
2018-02-16T01:50:33.265Z,3.17
2018-02-16T01:53:00.688Z,3.05
2018-02-16T01:55:28.137Z,3.05
2018-02-16T01:57:55.588Z,3.12
2018-02-16T02:00:23.045Z,3.23
2018-02-16T02:02:50.485Z,3.29
2018-02-16T02:05:17.918Z,3.26
2018-02-16T02:07:45.350Z,3.23
2018-02-16T02:10:12.784Z,3.15
2018-02-16T02:12:40.223Z,3.15
2018-02-16T02:15:07.724Z,3.12
2018-02-16T02:17:35.136Z,3.09
2018-02-16T02:20:02.594Z,3.20
2018-02-16T02:22:30.008Z,3.29
2018-02-16T02:24:57.433Z,3.27
2018-02-16T02:27:24.869Z,3.19
2018-02-16T02:29:52.308Z,3.11
2018-02-16T02:32:19.748Z,3.10
2018-02-16T02:34:47.219Z,3.06
2018-02-16T02:37:14.691Z,3.05
2018-02-16T02:39:42.121Z,3.04
2018-02-16T02:42:09.627Z,3.10
2018-02-16T02:44:37.110Z,3.12
2018-02-16T02:47:04.970Z,3.17
2018-02-16T02:49:32.417Z,3.18
2018-02-16T02:51:59.856Z,3.19
2018-02-16T02:54:27.333Z,3.20
2018-02-16T02:56:54.773Z,3.20
2018-02-16T02:59:22.185Z,3.17
2018-02-16T03:01:49.617Z,3.13
2018-02-16T03:04:17.048Z,3.11
2018-02-16T03:06:44.501Z,3.10
2018-02-16T03:09:11.933Z,3.09
2018-02-16T03:11:39.389Z,3.09
2018-02-16T03:14:06.809Z,3.04
2018-02-16T03:16:34.232Z,2.98
2018-02-16T03:19:01.677Z,2.94
2018-02-16T03:21:29.093Z,2.89
2018-02-16T03:23:56.508Z,2.81
2018-02-16T03:26:23.948Z,2.73
2018-02-16T03:28:51.397Z,2.64
2018-02-16T03:31:18.830Z,2.61
2018-02-16T03:33:46.320Z,2.52
2018-02-16T03:36:13.745Z,2.42
2018-02-16T03:38:41.158Z,2.36
2018-02-16T03:41:08.608Z,2.31
2018-02-16T03:43:36.063Z,2.26
2018-02-16T03:46:03.489Z,2.28
2018-02-16T03:48:30.966Z,2.28
2018-02-16T03:50:58.417Z,2.30
2018-02-16T03:53:25.820Z,2.28
2018-02-16T03:55:53.265Z,2.28
2018-02-16T03:58:20.688Z,2.23
2018-02-16T04:00:48.118Z,2.21
2018-02-16T04:03:15.553Z,2.24
2018-02-16T04:05:43.034Z,2.26
2018-02-16T04:08:10.457Z,2.27
2018-02-16T04:10:37.955Z,2.26
2018-02-16T04:13:05.404Z,2.29
2018-02-16T04:15:32.836Z,2.25
2018-02-16T04:18:00.300Z,2.22
2018-02-16T04:20:27.716Z,2.29
2018-02-16T04:22:55.140Z,2.28
2018-02-16T04:25:22.574Z,2.21
2018-02-16T04:27:50.005Z,2.15
2018-02-16T04:30:17.443Z,2.15
2018-02-16T04:32:44.890Z,2.13
2018-02-16T04:35:12.312Z,2.16
2018-02-16T04:37:39.767Z,2.15
2018-02-16T04:40:07.207Z,2.14
2018-02-16T04:42:34.642Z,2.14
2018-02-16T04:45:02.073Z,2.19
2018-02-16T04:47:30.300Z,2.28
2018-02-16T04:49:57.720Z,2.26
2018-02-16T04:52:25.148Z,2.23
2018-02-16T04:54:52.596Z,2.27
2018-02-16T04:57:20.030Z,2.25
2018-02-16T04:59:47.476Z,2.32
2018-02-16T05:02:14.912Z,2.40
2018-02-16T05:04:42.337Z,2.37
2018-02-16T05:07:10.732Z,2.34
2018-02-16T05:09:38.157Z,2.29
2018-02-16T05:12:05.656Z,2.30
2018-02-16T05:14:33.210Z,2.28
2018-02-16T05:17:00.681Z,2.22
2018-02-16T05:19:28.156Z,2.16
2018-02-16T05:21:55.598Z,2.13
2018-02-16T05:24:23.278Z,2.20
2018-02-16T05:26:50.697Z,2.15
2018-02-16T05:29:18.153Z,2.11
2018-02-16T05:31:45.985Z,2.03
2018-02-16T05:34:14.313Z,2.04
2018-02-16T05:36:41.729Z,2.04
2018-02-16T05:39:09.176Z,2.07
2018-02-16T05:41:36.601Z,2.05
2018-02-16T05:44:04.012Z,2.02
2018-02-16T05:46:31.479Z,2.00
2018-02-16T05:48:58.900Z,1.98
2018-02-16T05:51:26.321Z,1.95
2018-02-16T05:53:53.756Z,1.92
2018-02-16T05:56:21.245Z,1.84
2018-02-16T05:58:48.668Z,1.86
2018-02-16T06:01:17.400Z,1.84
2018-02-16T06:03:44.959Z,1.84
2018-02-16T06:06:12.390Z,1.82
2018-02-16T06:08:39.811Z,1.80
2018-02-16T06:11:07.240Z,1.77
2018-02-16T06:13:34.669Z,1.86
2018-02-16T06:16:02.110Z,1.89
2018-02-16T06:18:29.524Z,1.89
2018-02-16T06:20:56.951Z,1.88
2018-02-16T06:23:24.370Z,1.83
2018-02-16T06:25:51.848Z,1.82
2018-02-16T06:28:19.277Z,1.80
2018-02-16T06:30:46.721Z,1.82
2018-02-16T06:33:14.144Z,1.82
2018-02-16T06:35:41.592Z,1.80
2018-02-16T06:38:09.038Z,1.84
2018-02-16T06:40:36.476Z,1.78
2018-02-16T06:43:03.900Z,1.77
2018-02-16T06:45:31.376Z,1.79
2018-02-16T06:47:58.804Z,1.76
2018-02-16T06:50:26.224Z,1.81
2018-02-16T06:52:53.664Z,1.91
2018-02-16T06:55:21.096Z,2.05
2018-02-16T06:57:48.567Z,2.14
2018-02-16T07:00:15.996Z,2.21
2018-02-16T07:02:43.430Z,2.33
2018-02-16T07:05:10.853Z,2.38
2018-02-16T07:07:38.281Z,2.48
2018-02-16T07:10:05.710Z,2.57
2018-02-16T07:12:33.138Z,2.65
2018-02-16T07:15:00.595Z,2.70
2018-02-16T07:17:28.008Z,2.70
2018-02-16T07:19:55.477Z,2.74
2018-02-16T07:22:22.911Z,2.77
2018-02-16T07:24:50.325Z,2.83
2018-02-16T07:27:17.744Z,2.88
2018-02-16T07:29:45.232Z,2.98
2018-02-16T07:32:12.774Z,3.07
2018-02-16T07:34:40.184Z,3.16
2018-02-16T07:37:08.017Z,3.19
2018-02-16T07:39:35.473Z,3.27
2018-02-16T07:42:02.889Z,3.31
2018-02-16T07:44:30.328Z,3.41
2018-02-16T07:46:57.822Z,3.42
2018-02-16T07:49:25.249Z,3.50
2018-02-16T07:51:52.703Z,3.56
2018-02-16T07:54:20.155Z,3.62
2018-02-16T07:56:47.577Z,3.65
2018-02-16T07:59:15.037Z,3.67
2018-02-16T08:01:42.500Z,3.68
2018-02-16T08:04:09.916Z,3.61
2018-02-16T08:06:37.371Z,3.54
2018-02-16T08:09:04.839Z,3.53
2018-02-16T08:11:32.259Z,3.43
2018-02-16T08:13:59.702Z,3.43
2018-02-16T08:16:27.117Z,3.59
2018-02-16T08:18:54.556Z,3.70
2018-02-16T08:21:22.037Z,3.88
2018-02-16T08:23:49.494Z,4.03
2018-02-16T08:26:16.921Z,4.08
2018-02-16T08:28:44.361Z,4.21
2018-02-16T08:31:11.789Z,4.30
2018-02-16T08:33:39.216Z,4.38
2018-02-16T08:36:06.686Z,4.41
2018-02-16T08:38:34.109Z,4.48
2018-02-16T08:41:01.561Z,4.51
2018-02-16T08:43:29.037Z,4.65
2018-02-16T08:45:56.450Z,4.63
2018-02-16T08:48:24.323Z,4.75
2018-02-16T08:50:51.808Z,4.78
2018-02-16T08:53:19.233Z,4.77
2018-02-16T08:55:46.674Z,4.75
2018-02-16T08:58:14.094Z,4.82
2018-02-16T09:00:41.525Z,4.83
2018-02-16T09:03:08.941Z,4.84
2018-02-16T09:05:36.376Z,4.93
2018-02-16T09:08:03.796Z,5.05
2018-02-16T09:10:31.238Z,5.25
2018-02-16T09:12:58.660Z,5.35
2018-02-16T09:15:26.072Z,5.42
2018-02-16T09:17:53.488Z,5.55
2018-02-16T09:20:20.909Z,5.71
2018-02-16T09:22:48.311Z,5.85
2018-02-16T09:25:15.721Z,5.89
2018-02-16T09:27:43.137Z,5.95
2018-02-16T09:30:10.540Z,5.86
2018-02-16T09:32:37.996Z,5.79
2018-02-16T09:35:05.417Z,5.82
2018-02-16T09:37:33.115Z,5.90
2018-02-16T09:40:00.845Z,5.99
2018-02-16T09:42:28.263Z,6.03
2018-02-16T09:44:55.701Z,6.14
2018-02-16T09:47:23.103Z,6.25
2018-02-16T09:49:50.534Z,6.30
2018-02-16T09:52:17.932Z,6.21
2018-02-16T09:54:45.360Z,6.25
2018-02-16T09:57:13.562Z,6.18
2018-02-16T09:59:40.975Z,6.29
2018-02-16T10:02:08.385Z,6.38
2018-02-16T10:04:35.833Z,6.43
2018-02-16T10:07:03.269Z,6.32
2018-02-16T10:09:30.689Z,6.33
2018-02-16T10:11:58.164Z,6.62
2018-02-16T10:14:25.583Z,6.91
2018-02-16T10:16:53.013Z,7.20
2018-02-16T10:19:20.476Z,7.32
2018-02-16T10:21:47.905Z,7.27
2018-02-16T10:24:15.328Z,7.64
2018-02-16T10:26:42.745Z,7.99
2018-02-16T10:29:10.209Z,8.08
2018-02-16T10:31:37.601Z,8.15
2018-02-16T10:34:05.071Z,8.30
2018-02-16T10:36:32.485Z,8.48
2018-02-16T10:38:59.890Z,8.68
2018-02-16T10:41:27.329Z,8.71
2018-02-16T10:43:54.753Z,9.07
2018-02-16T10:46:22.157Z,9.34
2018-02-16T10:48:49.921Z,9.53
2018-02-16T10:51:17.348Z,9.64
2018-02-16T10:53:44.812Z,9.35
2018-02-16T10:56:12.216Z,9.19
2018-02-16T10:58:39.644Z,9.35
2018-02-16T11:01:12.732Z,9.44
2018-02-16T11:03:40.159Z,9.51
2018-02-16T11:06:18.436Z,9.69
2018-02-16T11:08:51.517Z,9.37
2018-02-16T11:11:18.938Z,9.32
2018-02-16T11:13:46.456Z,9.50
2018-02-16T11:16:13.862Z,9.78
2018-02-16T11:18:41.542Z,9.69
2018-02-16T11:21:08.981Z,10.03
2018-02-16T11:23:36.384Z,10.22
2018-02-16T11:26:03.835Z,10.63
2018-02-16T11:28:31.315Z,10.62
2018-02-16T11:30:58.761Z,10.97
2018-02-16T11:33:26.462Z,11.25
2018-02-16T11:35:53.901Z,11.34
2018-02-16T11:38:21.317Z,11.02
2018-02-16T11:40:48.753Z,10.76
2018-02-16T11:43:16.186Z,11.00
2018-02-16T11:45:44.568Z,10.79
2018-02-16T11:48:12.361Z,11.14
2018-02-16T11:50:39.772Z,10.89
2018-02-16T11:53:07.212Z,10.95
2018-02-16T11:55:34.654Z,10.87
2018-02-16T11:58:02.069Z,10.76
2018-02-16T12:00:29.520Z,10.94
2018-02-16T12:02:57.000Z,11.02
2018-02-16T12:05:24.444Z,10.60
2018-02-16T12:07:51.870Z,10.25
2018-02-16T12:10:19.288Z,10.38
2018-02-16T12:12:46.721Z,10.57
2018-02-16T12:15:14.137Z,10.25
2018-02-16T12:17:41.957Z,10.25
2018-02-16T12:20:09.375Z,10.59
2018-02-16T12:22:36.832Z,10.37
2018-02-16T12:25:04.290Z,10.37
2018-02-16T12:27:32.529Z,9.99
2018-02-16T12:29:59.959Z,9.94
2018-02-16T12:32:28.230Z,9.64
2018-02-16T12:34:55.639Z,9.81
2018-02-16T12:37:23.374Z,9.85
2018-02-16T12:39:51.650Z,9.86
2018-02-16T12:42:19.082Z,10.07
2018-02-16T12:44:46.542Z,10.28
2018-02-16T12:47:14.457Z,10.17
2018-02-16T12:49:41.864Z,9.99
2018-02-16T12:52:09.317Z,10.08
2018-02-16T12:54:37.127Z,10.32
2018-02-16T12:57:04.892Z,10.09
2018-02-16T12:59:32.310Z,9.85
2018-02-16T13:01:59.753Z,9.46
2018-02-16T13:04:27.193Z,9.11
2018-02-16T13:06:55.790Z,9.09
2018-02-16T13:09:23.232Z,8.95
2018-02-16T13:11:50.690Z,8.85
2018-02-16T13:14:18.336Z,9.12
2018-02-16T13:16:45.815Z,9.41
2018-02-16T13:19:13.273Z,9.52
2018-02-16T13:21:40.705Z,9.39
2018-02-16T13:24:08.120Z,9.73
2018-02-16T13:26:35.534Z,9.90
2018-02-16T13:29:02.957Z,9.97
2018-02-16T13:31:30.456Z,10.12
2018-02-16T13:33:59.264Z,10.19
2018-02-16T13:36:26.709Z,10.58
2018-02-16T13:38:54.180Z,10.73
2018-02-16T13:41:21.640Z,10.76
2018-02-16T13:43:49.066Z,11.02
2018-02-16T13:46:17.389Z,11.07
2018-02-16T13:48:44.850Z,10.86
2018-02-16T13:51:12.277Z,10.95
2018-02-16T13:53:39.753Z,10.75
2018-02-16T13:56:07.169Z,10.53
2018-02-16T13:58:34.604Z,10.18
2018-02-16T14:01:02.103Z,10.12
2018-02-16T14:03:29.618Z,10.04
2018-02-16T14:05:57.057Z,9.86
2018-02-16T14:08:24.550Z,9.39
2018-02-16T14:10:51.994Z,9.38
2018-02-16T14:13:19.410Z,9.39
2018-02-16T14:15:46.868Z,9.44
2018-02-16T14:18:14.316Z,9.27
2018-02-16T14:20:41.787Z,9.20
2018-02-16T14:23:09.472Z,9.46
2018-02-16T14:25:36.885Z,9.54
2018-02-16T14:28:04.332Z,9.68
2018-02-16T14:30:31.798Z,9.63
2018-02-16T14:32:59.212Z,9.89
2018-02-16T14:35:26.632Z,9.91
2018-02-16T14:37:54.114Z,9.83
2018-02-16T14:40:21.517Z,9.87
2018-02-16T14:42:52.116Z,9.77
2018-02-16T14:45:20.177Z,9.74
2018-02-16T14:47:47.608Z,9.79
2018-02-16T14:50:15.041Z,9.90
2018-02-16T14:52:42.488Z,9.67
2018-02-16T14:55:09.926Z,9.77
2018-02-16T14:57:37.352Z,9.82
2018-02-16T15:00:04.798Z,9.86
2018-02-16T15:02:42.321Z,9.78
2018-02-16T15:05:09.775Z,9.60
2018-02-16T15:07:42.888Z,9.54
2018-02-16T15:10:10.297Z,9.54
2018-02-16T15:12:37.728Z,9.32
2018-02-16T15:15:05.144Z,9.22
2018-02-16T15:17:32.566Z,9.14
2018-02-16T15:19:59.984Z,9.23
2018-02-16T15:22:27.384Z,9.13
2018-02-16T15:24:54.820Z,9.05
2018-02-16T15:27:25.014Z,9.13
2018-02-16T15:29:52.449Z,9.09
2018-02-16T15:32:19.908Z,9.14
2018-02-16T15:34:49.405Z,9.19
2018-02-16T15:37:16.849Z,8.99
2018-02-16T15:39:44.331Z,9.05
2018-02-16T15:42:12.945Z,9.00
2018-02-16T15:44:40.367Z,9.01
2018-02-16T15:47:07.796Z,8.95
2018-02-16T15:49:35.687Z,8.95
2018-02-16T15:52:03.228Z,8.87
2018-02-16T15:54:31.114Z,8.93
2018-02-16T15:56:58.584Z,8.88
2018-02-16T15:59:26.009Z,8.79
2018-02-16T16:01:53.732Z,8.78
2018-02-16T16:04:25.062Z,8.67
2018-02-16T16:06:53.334Z,8.57
2018-02-16T16:09:20.757Z,8.53
2018-02-16T16:11:48.192Z,8.57
2018-02-16T16:14:15.645Z,8.49
2018-02-16T16:16:43.083Z,8.44
2018-02-16T16:19:10.498Z,8.40
2018-02-16T16:21:37.929Z,8.31
2018-02-16T16:24:05.420Z,8.23
2018-02-16T16:26:32.835Z,8.17
2018-02-16T16:29:00.274Z,8.06
2018-02-16T16:31:27.691Z,7.99
2018-02-16T16:33:55.159Z,7.92
2018-02-16T16:36:22.569Z,7.86
2018-02-16T16:38:49.988Z,7.84
2018-02-16T16:41:17.428Z,7.81
2018-02-16T16:43:45.306Z,7.72
2018-02-16T16:46:12.729Z,7.71
2018-02-16T16:48:40.285Z,7.67
2018-02-16T16:51:07.704Z,7.61
2018-02-16T16:53:35.117Z,7.50
2018-02-16T16:56:02.525Z,7.41
2018-02-16T16:58:29.988Z,7.38
2018-02-16T17:00:57.381Z,7.45
2018-02-16T17:03:24.793Z,7.33
2018-02-16T17:05:52.244Z,7.24
2018-02-16T17:08:19.665Z,7.17
2018-02-16T17:10:52.869Z,7.08
2018-02-16T17:13:20.272Z,7.02
2018-02-16T17:15:47.776Z,6.96
2018-02-16T17:18:15.461Z,6.92
2018-02-16T17:20:42.872Z,6.88
2018-02-16T17:23:10.320Z,6.81
2018-02-16T17:25:37.732Z,6.74
2018-02-16T17:28:05.152Z,6.61
2018-02-16T17:30:32.576Z,6.51
2018-02-16T17:32:59.997Z,6.45
2018-02-16T17:35:27.418Z,6.40
2018-02-16T17:38:06.294Z,6.30
2018-02-16T17:40:33.744Z,6.14
2018-02-16T17:43:01.167Z,6.02
2018-02-16T17:45:28.586Z,5.89
2018-02-16T17:47:56.022Z,5.76
2018-02-16T17:50:23.434Z,5.63
2018-02-16T17:52:50.850Z,5.50
2018-02-16T17:55:18.268Z,5.38
2018-02-16T17:57:45.696Z,5.29
2018-02-16T18:00:13.149Z,5.20
2018-02-16T18:02:41.488Z,5.08
2018-02-16T18:05:08.906Z,4.98
2018-02-16T18:07:36.629Z,4.86
2018-02-16T18:10:12.264Z,4.89
2018-02-16T18:12:39.705Z,4.92
2018-02-16T18:15:07.121Z,4.97
2018-02-16T18:17:44.249Z,5.02
2018-02-16T18:20:11.673Z,5.04
2018-02-16T18:22:39.088Z,5.04
2018-02-16T18:25:06.517Z,5.07
2018-02-16T18:27:33.926Z,5.01
2018-02-16T18:30:01.329Z,4.95
2018-02-16T18:32:28.771Z,4.82
2018-02-16T18:34:56.209Z,4.70
2018-02-16T18:37:23.628Z,4.58
2018-02-16T18:39:51.045Z,4.54
2018-02-16T18:42:18.449Z,4.40
2018-02-16T18:44:45.892Z,4.32
2018-02-16T18:47:14.148Z,4.24
2018-02-16T18:49:41.585Z,4.30
2018-02-16T18:52:08.997Z,4.17
2018-02-16T18:54:36.448Z,4.19
2018-02-16T18:57:03.879Z,4.18
2018-02-16T18:59:31.281Z,4.15
2018-02-16T19:01:58.697Z,4.20
2018-02-16T19:04:26.122Z,4.30
2018-02-16T19:06:53.608Z,4.30
2018-02-16T19:09:21.133Z,4.27
2018-02-16T19:11:48.532Z,4.27
2018-02-16T19:14:15.941Z,4.26
2018-02-16T19:16:43.360Z,4.22
2018-02-16T19:19:10.791Z,4.11
2018-02-16T19:21:38.945Z,3.93
2018-02-16T19:24:06.366Z,3.83
2018-02-16T19:26:33.784Z,3.78
2018-02-16T19:29:01.293Z,3.70
2018-02-16T19:31:29.058Z,3.63
2018-02-16T19:33:56.468Z,3.57
2018-02-16T19:36:23.918Z,3.67
2018-02-16T19:38:51.340Z,3.69
2018-02-16T19:41:18.748Z,3.70
2018-02-16T19:43:46.175Z,3.68
2018-02-16T19:46:13.621Z,3.58
2018-02-16T19:48:41.065Z,3.56
2018-02-16T19:51:08.532Z,3.54
2018-02-16T19:53:36.259Z,3.47
2018-02-16T19:56:03.693Z,3.44
2018-02-16T19:58:31.123Z,3.40
2018-02-16T20:00:58.549Z,3.34
2018-02-16T20:03:25.980Z,3.30
2018-02-16T20:05:53.396Z,3.23
2018-02-16T20:08:20.836Z,3.18
2018-02-16T20:10:48.250Z,3.33
2018-02-16T20:13:15.666Z,3.37
2018-02-16T20:15:43.475Z,3.27
2018-02-16T20:18:10.967Z,3.24
2018-02-16T20:20:38.361Z,3.31
2018-02-16T20:23:05.793Z,3.12
2018-02-16T20:25:33.212Z,3.10
2018-02-16T20:28:00.656Z,3.15
2018-02-16T20:30:28.112Z,3.20
2018-02-16T20:32:55.554Z,3.18
2018-02-16T20:35:22.976Z,3.13
2018-02-16T20:37:50.428Z,3.04
2018-02-16T20:40:17.850Z,3.06
2018-02-16T20:42:45.273Z,3.03
2018-02-16T20:45:12.709Z,3.05
2018-02-16T20:47:40.140Z,3.06
2018-02-16T20:50:07.562Z,3.07
2018-02-16T20:52:35.001Z,3.11
2018-02-16T20:55:08.272Z,3.10
2018-02-16T20:57:35.702Z,3.11
2018-02-16T21:00:03.125Z,3.17
2018-02-16T21:02:30.598Z,3.14
2018-02-16T21:04:58.002Z,3.06
2018-02-16T21:07:25.441Z,3.00
2018-02-16T21:09:52.860Z,2.89
2018-02-16T21:12:20.300Z,2.87
2018-02-16T21:14:47.715Z,2.76
2018-02-16T21:17:15.132Z,2.64
2018-02-16T21:19:42.611Z,2.51
2018-02-16T21:22:10.018Z,2.40
2018-02-16T21:24:37.444Z,2.53
2018-02-16T21:27:04.872Z,2.50
2018-02-16T21:29:32.297Z,2.42
2018-02-16T21:31:59.718Z,2.28
2018-02-16T21:34:27.153Z,2.07
2018-02-16T21:36:54.574Z,2.06
2018-02-16T21:39:22.000Z,2.01
2018-02-16T21:41:49.449Z,1.94
2018-02-16T21:44:16.878Z,1.89
2018-02-16T21:46:44.309Z,1.85
2018-02-16T21:49:11.741Z,1.79
2018-02-16T21:51:39.164Z,1.57
2018-02-16T21:54:06.613Z,1.53
2018-02-16T21:56:34.053Z,1.59
2018-02-16T21:59:01.481Z,1.61
2018-02-16T22:01:28.910Z,1.59
2018-02-16T22:03:56.350Z,1.61
2018-02-16T22:06:23.778Z,1.58
2018-02-16T22:08:51.185Z,1.52
2018-02-16T22:11:18.615Z,1.54
2018-02-16T22:13:46.041Z,1.49
2018-02-16T22:16:13.448Z,1.52
2018-02-16T22:18:40.908Z,1.51
2018-02-16T22:21:08.320Z,1.53
2018-02-16T22:23:35.736Z,1.51
2018-02-16T22:26:03.185Z,1.49
2018-02-16T22:28:30.668Z,1.42
2018-02-16T22:30:58.076Z,1.42
2018-02-16T22:33:25.548Z,1.41
2018-02-16T22:35:52.967Z,1.43
2018-02-16T22:38:20.397Z,1.40
2018-02-16T22:40:47.844Z,1.35
2018-02-16T22:43:15.290Z,1.38
2018-02-16T22:45:42.743Z,1.30
2018-02-16T22:48:10.177Z,1.04
2018-02-16T22:50:38.140Z,0.98
2018-02-16T22:53:05.556Z,1.10
2018-02-16T22:55:32.998Z,1.11
2018-02-16T22:58:00.424Z,1.16
2018-02-16T23:00:27.848Z,1.03
2018-02-16T23:02:55.298Z,1.02
2018-02-16T23:05:22.704Z,0.96
2018-02-16T23:07:50.121Z,1.01
2018-02-16T23:10:17.593Z,1.17
2018-02-16T23:12:45.002Z,1.35
2018-02-16T23:15:12.426Z,1.47
2018-02-16T23:17:39.860Z,1.48
2018-02-16T23:20:07.296Z,1.56
2018-02-16T23:22:34.708Z,1.67
2018-02-16T23:25:02.153Z,1.66
2018-02-16T23:27:29.596Z,1.77
2018-02-16T23:29:57.040Z,1.88
2018-02-16T23:32:36.678Z,1.92
2018-02-16T23:35:04.101Z,1.96
2018-02-16T23:37:31.549Z,2.04
2018-02-16T23:39:58.977Z,2.09
2018-02-16T23:42:26.370Z,2.10
2018-02-16T23:44:53.793Z,2.03
2018-02-16T23:47:21.232Z,2.00
2018-02-16T23:49:48.675Z,1.95
2018-02-16T23:52:16.084Z,1.89
2018-02-16T23:54:43.523Z,1.86
2018-02-16T23:57:10.946Z,1.86
2018-02-16T23:59:38.377Z,1.92
